Tiempo atmosférico en la estación meteorológica de Muniesa, Teruel (800 m.)



Fecha
DESCASC
Temp. máxima en grados centígrados (hora)
DESCASC
Temp. mínima en grados centígrados (hora)
DESCASC
Temp. media en grados centígrados
DESCASC
Racha de viento máxima en m/sg (hora)
DESCASC
Velocidad máxima media en intervalos de 10 minutos(hora)
DESCASC
Precipitaciones diarias en mm
DESCASC
Precipitaciones de 00:00 a 06:00 en mm
DESCASC
Precipitaciones de 06:00 a 12:00 en mm
DESCASC
Precipitaciones de 12:00 a 18:00 en mm
DESCASC
Precipitaciones de 18:00 a 24:00 en mm
DESCASC
13-10-2019 27.7 (14:50) 14.3 (06:00) 21 10.83 (15:10) 6.39 (15:20) 0 0 0 0 0
12-10-2019 27.1 (14:50) 18.1 (06:00) 22.6 9.17 (21:30) 5.28 (21:30) 0 0 0 0 0
10-10-2019 21.3 (16:20) 11.6 (00:00) 16.4 5.83 (18:50) 3.89 (18:50) 0 0 0 0 0
09-10-2019 21.3 (15:10) 11.2 (00:00) 16.2 9.17 (11:20) 5.83 (11:20) 0 0 0 0 0
08-10-2019 27.5 (15:40) 13 (00:00) 20.3 6.94 (16:40) 4.17 (16:30) 0 0 0 0 0
07-10-2019 24.1 (16:10) 11.6 (00:00) 17.9 14.17 (16:20) 8.89 (16:20) 0 0 0 0 0
06-10-2019 22.4 (16:20) 9.3 (00:00) 15.8 10.83 (20:00) 6.39 (19:10) 0 0 0 0 0
05-10-2019 25.4 (16:40) 9.1 (08:30) 17.3 6.39 (16:50) 3.89 (17:40) 0 0 0 0 0
04-10-2019 25.4 (17:00) 12.9 (00:00) 19.1 7.5 (14:40) 4.44 (23:10) 0 0 0 0 0
03-10-2019 24.4 (15:10) 8.9 (00:00) 16.6 11.11 (00:50) 6.39 (00:50) 0 0 0 0 0
02-10-2019 19.7 (15:20) 12 (00:00) 15.9 15.28 (15:10) 9.44 (14:20) 0 0 0 0 0
01-10-2019 28 (14:20) 14.6 (00:00) 21.3 11.67 (17:10) 6.67 (17:10) 0 0 0 0 0
30-09-2019 28.4 (13:10) 14.6 (00:00) 21.5 7.78 (15:00) 4.17 (18:20) 0 0 0 0 0
29-09-2019 30.7 (16:10) 15.1 (00:00) 22.9 9.44 (15:50) 5.28 (14:00) 0 0 0 0 0
28-09-2019 25.8 (16:50) 10.9 (00:00) 18.3 6.67 (15:10) 3.89 (18:20) 0 0 0 0 0
27-09-2019 -- (--) -- (--) -- -- (--) -- (--) -- 0 -- 0 0
26-09-2019 27.9 (16:00) 12.5 (00:00) 20.2 7.22 (17:20) 4.72 (17:20) 0 0 0 0 0
25-09-2019 22.7 (16:20) 13 (00:00) 17.9 8.06 (16:10) 4.72 (09:50) 0 0 0 0 0
24-09-2019 29 (16:40) 14.7 (00:00) 21.8 10.28 (13:30) 6.11 (13:30) 0 0 0 0 0
23-09-2019 24.3 (16:50) 11 (00:00) 17.6 6.67 (17:30) 3.33 (16:20) 0 0 0 0 0
22-09-2019 24.7 (14:20) 14.1 (00:00) 19.4 13.61 (15:50) 9.17 (15:50) 0.8 0 0 0.8 0
21-09-2019 25.6 (17:00) 14.8 (00:00) 20.2 8.61 (15:20) 5 (17:40) 1 0.6 0.4 0 0
20-09-2019 25.7 (14:20) 13.9 (00:00) 19.8 11.67 (16:20) 7.5 (16:40) 1.8 0 0 1.8 0
19-09-2019 25.8 (14:50) 12.6 (00:00) 19.2 9.72 (19:10) 6.11 (19:30) 10.2 0 0 0.8 9.4
18-09-2019 26 (15:10) 12.2 (00:00) 19.1 15.56 (16:30) 5.28 (17:30) 0.8 0 0 0.8 0
17-09-2019 28.3 (15:40) 14.5 (00:00) 21.4 16.94 (22:30) 10.28 (22:40) 0.8 0 0 0 0.8

Gráficas

Temp. máximas Temp. mínimas Temp. medias Precipitaciones Rachas de viento máximas Velocidades máximas media en intervalos de 10 minutos

Datos horarios

Fecha y hora oficial Temperatura (ºC) Velocidad del viento (km/h) Dirección del viento Racha (km/h) Dirección de racha Precipitación (mm) Presión (hPa) Tendencia (hPa) Humedad (%)
2019-10-16 23:00:00 12.1 2 Nordeste 9 Sudoeste 0 -- -- 50
2019-10-16 22:00:00 12.1 6 Sur 11 Sur 0 -- -- 52
2019-10-16 21:00:00 13.2 3 Sur 5 Sur 0 -- -- 49
2019-10-16 20:00:00 15.7 0 Calma 17 Este 0 -- -- 44
2019-10-16 19:00:00 20.5 9 Noroeste 18 Noroeste 0 -- -- 31
2019-10-16 18:00:00 22 5 Noroeste 15 Noroeste 0 -- -- 29
2019-10-16 17:00:00 21.8 4 Este 19 Sudoeste 0 -- -- 29
2019-10-16 16:00:00 21.1 6 Oeste 18 Oeste 0 -- -- 30
2019-10-16 15:00:00 20 5 Sur 10 Sur 0 -- -- 33
2019-10-16 14:00:00 17.8 3 Nordeste 14 Oeste 0 -- -- 36
2019-10-16 13:00:00 17.6 10 Oeste 18 Oeste 0 -- -- 37
2019-10-16 12:00:00 16.5 7 Oeste 22 Sudoeste 0 -- -- 41
2019-10-16 11:00:00 14.9 11 Sudoeste 22 Sudoeste 0 -- -- 44
2019-10-16 10:00:00 12.7 9 Sudoeste 16 Sur 0 -- -- 47
2019-10-16 09:00:00 9.8 4 Sur 9 Sudoeste 0 -- -- 56
2019-10-16 08:00:00 10 5 Sur 13 Sudoeste 0 -- -- 57
2019-10-16 07:00:00 10.7 10 Sudoeste 22 Sudoeste 0 -- -- 56
2019-10-16 06:00:00 10.9 14 Sudoeste 23 Sudoeste 0 -- -- 56
2019-10-16 05:00:00 11.1 16 Sudoeste 22 Sudoeste 0 -- -- 56
2019-10-16 04:00:00 9.9 6 Sudoeste 15 Sur 0 -- -- 63
2019-10-16 03:00:00 8.4 8 Sur 12 Sur 0 -- -- 68
2019-10-16 02:00:00 7.5 7 Sur 11 Sur 0 -- -- 69
2019-10-16 01:00:00 8.5 9 Sur 14 Sur 0 -- -- 65
2019-10-16 00:00:00 8 10 Sur 14 Sur 0 -- -- 67
2019-10-15 23:00:00 9.4 6 Sur 15 Oeste 0 -- -- 61
2019-10-15 22:00:00 9.5 8 Sur 10 Sur 0 -- -- 60
2019-10-15 21:00:00 11 3 Sudoeste 12 Oeste 0 -- -- 54
2019-10-15 20:00:00 12.4 7 Noroeste 21 Noroeste 0 -- -- 50
2019-10-15 19:00:00 14.7 10 Noroeste 25 Noroeste 0 -- -- 42
2019-10-15 18:00:00 15.8 14 Oeste 29 Noroeste 0 -- -- 37
2019-10-15 17:00:00 16.1 15 Noroeste 30 Noroeste 0 -- -- 38
2019-10-15 16:00:00 15.9 15 Oeste 31 Noroeste 0 -- -- 38
2019-10-15 15:00:00 14.9 16 Oeste 28 Oeste 0 -- -- 42
2019-10-15 14:00:00 14 15 Oeste 33 Oeste 0 -- -- 46
2019-10-15 13:00:00 12.5 18 Oeste 33 Oeste 0 -- -- 51
2019-10-15 12:00:00 11.5 20 Oeste 38 Oeste 0 -- -- 54
2019-10-15 11:00:00 10.1 21 Oeste 42 Oeste 0 -- -- 59
2019-10-15 10:00:00 8.6 27 Oeste 48 Oeste 0 -- -- 65
2019-10-15 09:00:00 7.4 21 Oeste 43 Oeste 0 -- -- 70
2019-10-15 08:00:00 7.5 22 Oeste 47 Oeste 0 -- -- 70
2019-10-15 07:00:00 7.9 15 Oeste 39 Oeste 0 -- -- 68
2019-10-15 06:00:00 7.2 10 Noroeste 31 Oeste 0 -- -- 72
2019-10-15 05:00:00 7.9 17 Oeste 37 Noroeste 0 -- -- 69
2019-10-15 04:00:00 8.9 19 Oeste 39 Oeste 0 -- -- 67
2019-10-15 03:00:00 9.5 13 Oeste 43 Sudoeste 0 -- -- 71
2019-10-15 02:00:00 10 20 Sudoeste 33 Sudoeste 0 -- -- 71
2019-10-15 01:00:00 11.1 18 Sudoeste 32 Oeste 0 -- -- 67
2019-10-15 00:00:00 11.5 6 Sudoeste 21 Oeste 0 -- -- 70
2019-10-14 23:00:00 10.9 15 Oeste 47 Oeste 0 -- -- 71
2019-10-14 22:00:00 12.6 28 Oeste 47 Oeste 0.2 -- -- 65
2019-10-14 21:00:00 16.1 9 Sudoeste 26 Oeste 0 -- -- 59
2019-10-14 20:00:00 16.9 12 Oeste 22 Sudoeste 0 -- -- 62
2019-10-14 19:00:00 17.7 8 Sur 23 Sur 0 -- -- 68
2019-10-14 18:00:00 18 15 Sudoeste 37 Sudoeste 1 -- -- 68
2019-10-14 17:00:00 22.3 21 Sur 35 Sur 0 -- -- 49
2019-10-14 16:00:00 23.3 18 Sur 38 Sur 0 -- -- 45
2019-10-14 15:00:00 20.7 24 Sur 40 Sur 0 -- -- 52
2019-10-14 14:00:00 19.7 35 Sur 55 Sur 0 -- -- 50
2019-10-14 13:00:00 16.1 43 Sur 68 Sur 0.4 -- -- 74
2019-10-14 12:00:00 21.5 36 Sudoeste 57 Sur 0 -- -- 47
2019-10-14 11:00:00 20 33 Sudoeste 59 Sur 0 -- -- 50
2019-10-14 10:00:00 19.8 11 Sur 31 Sur 0 -- -- 49
2019-10-14 09:00:00 18.9 25 Sur 44 Sudoeste 0 -- -- 56
2019-10-14 08:00:00 19 16 Sur 31 Sudeste 0 -- -- 52
2019-10-14 07:00:00 19.3 23 Sur 32 Sur 0 -- -- 53
2019-10-14 06:00:00 16.1 15 Sudeste 21 Sudeste 0 -- -- 65
2019-10-14 05:00:00 15.8 11 Sudeste 19 Sudeste 0 -- -- 70
2019-10-14 04:00:00 16.7 8 Sur 32 Sur 0 -- -- 67
2019-10-14 03:00:00 17.4 13 Sudeste 24 Sur 0 -- -- 60
2019-10-14 02:00:00 16.2 6 Sudeste 16 Sudeste 0 -- -- 67
2019-10-14 01:00:00 17 9 Sudeste 17 Sudeste 0 -- -- 70
2019-10-14 00:00:00 18.3 7 Sur 18 Sur 0 -- -- 67
2019-10-13 23:00:00 17.9 11 Sur 16 Sur 0 -- -- 61
2019-10-13 22:00:00 17.8 2 Sur 8 Sudoeste 0 -- -- 50
2019-10-13 21:00:00 20.4 4 Sudoeste 19 Sur 0 -- -- 40
2019-10-13 20:00:00 22.9 14 Sur 28 Sur 0 -- -- 38
2019-10-13 19:00:00 25.3 18 Sur 32 Sur 0 -- -- 34
2019-10-13 18:00:00 26.4 18 Sudoeste 31 Sur 0 -- -- 32
2019-10-13 17:00:00 27.7 17 Sur 35 Sur 0 -- -- 30
2019-10-13 16:00:00 26.7 16 Sur 39 Sur 0 -- -- 34
2019-10-13 15:00:00 27.6 20 Sur 36 Sur 0 -- -- 31
2019-10-13 14:00:00 26.3 15 Sudoeste 30 Sudoeste 0 -- -- 39
2019-10-13 13:00:00 24.6 15 Sudoeste 24 Oeste 0 -- -- 46
2019-10-13 12:00:00 23 7 Sur 21 Sudoeste 0 -- -- 51
2019-10-13 11:00:00 21.1 4 Este 13 Sudeste 0 -- -- 58
2019-10-13 10:00:00 18.1 4 Sur 21 Sudeste 0 -- -- 67
2019-10-13 09:00:00 15.4 9 Sudeste 22 Sudeste 0 -- -- 77
2019-10-13 08:00:00 15 12 Sur 23 Sur 0 -- -- 78
2019-10-13 07:00:00 15.4 10 Sur 19 Sur 0 -- -- 78
2019-10-13 06:00:00 14.3 0 Calma 18 Sudeste 0 -- -- 83
2019-10-13 05:00:00 15.1 9 Sudeste 16 Sudeste 0 -- -- 81
2019-10-13 04:00:00 15.7 7 Sur 10 Sur 0 -- -- 79
2019-10-13 03:00:00 16.3 4 Oeste 15 Sudoeste 0 -- -- 77
2019-10-13 02:00:00 18 8 Sudoeste 19 Sudoeste 0 -- -- 70
2019-10-13 01:00:00 17.8 4 Sur 13 Sudoeste 0 -- -- 67
2019-10-13 00:00:00 18.6 7 Sur 19 Sur 0 -- -- 65
2019-10-12 23:00:00 19.9 7 Sur 19 Sur 0 -- -- 61
2019-10-12 22:00:00 20.5 8 Nordeste 33 Sur 0 -- -- 60
2019-10-12 21:00:00 21.6 14 Sur 26 Sur 0 -- -- 58
2019-10-12 20:00:00 22.8 9 Sur 18 Sur 0 -- -- 52
2019-10-12 19:00:00 24 13 Sudoeste 23 Sur 0 -- -- 45
2019-10-12 18:00:00 26 9 Sudeste 23 Nordeste 0 -- -- 41
2019-10-12 17:00:00 25.6 14 Nordeste 22 Este 0 -- -- 42
2019-10-12 16:00:00 25.5 13 Este 28 Este 0 -- -- 44
2019-10-12 15:00:00 26.7 15 Este 27 Este 0 -- -- 40
2019-10-12 14:00:00 25.8 10 Norte 19 Norte 0 -- -- 44
2019-10-12 13:00:00 26.5 5 Sudoeste 20 Sur 0 -- -- 33
2019-10-12 12:00:00 24.6 3 Sudeste 18 Sudoeste 0 -- -- 36
2019-10-12 11:00:00 22.2 5 Sur 17 Este 0 -- -- 46
2019-10-12 10:00:00 20 8 Sudeste 14 Este 0 -- -- 56
2019-10-12 09:00:00 19.1 6 Sudeste 22 Sur 0 -- -- 56
2019-10-12 08:00:00 18.4 8 Sur 20 Sur 0 -- -- 59
2019-10-12 07:00:00 18.4 8 Sudeste 21 Sudoeste 0 -- -- 61
2019-10-12 06:00:00 18.1 9 Sudeste 23 Sur 0 -- -- 65
2019-10-12 05:00:00 18.4 4 Oeste 17 Sur 0 -- -- 65
2019-10-12 04:00:00 18.6 7 Sur 24 Sur 0 -- -- 64
2019-10-12 03:00:00 18.9 7 Sur 22 Sur 0 -- -- 65
2019-10-12 02:00:00 19.4 9 Sudeste 29 Sur 0 -- -- 64
2019-10-12 01:00:00 20.1 10 Sur 19 Sur 0 -- -- 62
2019-10-12 00:00:00 20.5 10 Sur 23 Sudoeste 0 -- -- 61
2019-10-11 23:00:00 18.7 8 Sur 14 Sur 0 -- -- 67
2019-10-11 22:00:00 18.7 4 Sudoeste 9 Sudeste 0 -- -- 71
2019-10-11 21:00:00 19.5 3 Sudoeste 15 Sudeste 0 -- -- 67
2019-10-11 20:00:00 20.9 12 Este 24 Este 0 -- -- 63
2019-10-11 19:00:00 23.4 18 Este 27 Este 0 -- -- 55
2019-10-11 18:00:00 23.9 20 Este 30 Este 0 -- -- 52
2019-10-11 17:00:00 25 18 Este 26 Este 0 -- -- 49
2019-10-11 16:00:00 25.6 17 Este 26 Este 0 -- -- 44
2019-10-11 15:00:00 26.2 12 Este 21 Sudeste 0 -- -- 44
2019-10-11 14:00:00 24.9 9 Este 17 Este 0 -- -- 47
2019-10-11 13:00:00 23.6 6 Nordeste 12 Este 0 -- -- 50
2019-10-11 12:00:00 21.8 6 Este 12 Este 0 -- -- 54
2019-10-11 11:00:00 19.3 6 Este 12 Este 0 -- -- 60
2019-10-11 10:00:00 15 3 Nordeste 9 Este 0 -- -- 76
2019-10-11 09:00:00 12.4 0 Calma 10 Sur 0 -- -- 82
2019-10-11 08:00:00 10.9 5 Sudeste 9 Sudeste 0 -- -- 85
2019-10-11 07:00:00 10.6 3 Sur 5 Sur 0 -- -- 87
2019-10-11 06:00:00 11.4 0 Calma 6 Sudeste 0 -- -- 77
2019-10-11 05:00:00 12.2 2 Sudeste 9 Sudeste 0 -- -- 74
2019-10-11 04:00:00 12.5 6 Sudeste 12 Sudeste 0 -- -- 72
2019-10-11 03:00:00 12.4 3 Sur 10 Sudeste 0 -- -- 70
2019-10-11 02:00:00 13.4 7 Sudeste 16 Sudeste 0 -- -- 66
2019-10-11 01:00:00 13.6 9 Sudeste 16 Sudeste 0 -- -- 65
2019-10-11 00:00:00 12.2 2 Sur 5 Sur 0 -- -- 68
2019-10-10 23:00:00 12.8 2 Sur 5 Sudeste 0 -- -- 65
2019-10-10 22:00:00 14 5 Sudeste 9 Sudeste 0 -- -- 62
2019-10-10 21:00:00 15.1 6 Sudeste 10 Sudeste 0 -- -- 58
2019-10-10 20:00:00 16.9 6 Este 18 Este 0 -- -- 53
2019-10-10 19:00:00 19.3 13 Este 21 Este 0 -- -- 47
2019-10-10 18:00:00 20.9 11 Este 19 Este 0 -- -- 44
2019-10-10 17:00:00 21 9 Este 15 Nordeste 0 -- -- 45
2019-10-10 16:00:00 21 3 Noroeste 17 Nordeste 0 -- -- 45
2019-10-10 15:00:00 18.7 4 Norte 13 Norte 0 -- -- 49
2019-10-10 14:00:00 17.5 4 Noroeste 12 Norte 0 -- -- 51
2019-10-10 13:00:00 15.2 4 Norte 9 Noroeste 0 -- -- 57
2019-10-10 12:00:00 13.8 4 Noroeste 9 Noroeste 0 -- -- 61
2019-10-10 11:00:00 13.1 4 Noroeste 13 Noroeste 0 -- -- 63
2019-10-10 10:00:00 12.5 9 Noroeste 16 Noroeste 0 -- -- 64
2019-10-10 09:00:00 12.3 7 Noroeste 10 Noroeste 0 -- -- 64
2019-10-10 08:00:00 12.1 5 Oeste 12 Noroeste 0 -- -- 63
2019-10-10 07:00:00 12 9 Noroeste 17 Noroeste 0 -- -- 64
2019-10-10 06:00:00 12.1 9 Noroeste 19 Noroeste 0 -- -- 63
2019-10-10 05:00:00 12.2 7 Noroeste 15 Oeste 0 -- -- 64
2019-10-10 04:00:00 12.1 9 Oeste 18 Oeste 0 -- -- 65
2019-10-10 03:00:00 11.9 9 Oeste 18 Oeste 0 -- -- 69
2019-10-10 02:00:00 11.8 8 Oeste 16 Noroeste 0 -- -- 68
2019-10-10 01:00:00 11.7 7 Oeste 16 Oeste 0 -- -- 66
2019-10-10 00:00:00 11.8 8 Oeste 17 Oeste 0 -- -- 68
2019-10-09 23:00:00 12.6 9 Oeste 15 Oeste 0 -- -- 65
2019-10-09 22:00:00 13.7 8 Noroeste 21 Noroeste 0 -- -- 63
2019-10-09 21:00:00 14.8 13 Noroeste 22 Noroeste 0 -- -- 62
2019-10-09 20:00:00 16.1 10 Noroeste 21 Norte 0 -- -- 61
2019-10-09 19:00:00 17.9 13 Norte 24 Norte 0 -- -- 57
2019-10-09 18:00:00 19.5 14 Noroeste 25 Noroeste 0 -- -- 56
2019-10-09 17:00:00 20.4 17 Noroeste 31 Noroeste 0 -- -- 55
2019-10-09 16:00:00 20.8 18 Noroeste 33 Norte 0 -- -- 55
2019-10-09 15:00:00 20.9 15 Noroeste 26 Noroeste 0 -- -- 56
2019-10-09 14:00:00 20.4 13 Noroeste 33 Noroeste 0 -- -- 58
2019-10-09 13:00:00 19.4 15 Noroeste 30 Norte 0 -- -- 61
2019-10-09 12:00:00 18.7 18 Noroeste 33 Norte 0 -- -- 63
2019-10-09 11:00:00 17.3 13 Noroeste 20 Noroeste 0 -- -- 69
2019-10-09 10:00:00 15.1 10 Noroeste 21 Oeste 0 -- -- 79
2019-10-09 09:00:00 12.9 7 Noroeste 16 Noroeste 0 -- -- 87
2019-10-09 08:00:00 12 5 Sur 9 Sur 0 -- -- 72
2019-10-09 07:00:00 12.4 3 Sur 8 Noroeste 0 -- -- 74
2019-10-09 06:00:00 12.7 3 Sudoeste 8 Sudoeste 0 -- -- 69
2019-10-09 05:00:00 12.8 0 Calma 6 Sur 0 -- -- 63
2019-10-09 04:00:00 13.3 0 Calma 8 Sur 0 -- -- 61
2019-10-09 03:00:00 15 5 Sur 8 Sur 0 -- -- 56
2019-10-09 02:00:00 15.3 3 Sur 5 Sur 0 -- -- 54
2019-10-09 01:00:00 15.5 5 Sur 6 Sur 0 -- -- 53
2019-10-09 00:00:00 16 4 Norte 16 Norte 0 -- -- 52
2019-10-08 23:00:00 17.6 5 Sudoeste 10 Sur 0 -- -- 50
2019-10-08 22:00:00 18.1 6 Sur 10 Sur 0 -- -- 48
2019-10-08 21:00:00 19.6 5 Sur 6 Sur 0 -- -- 44
2019-10-08 20:00:00 21.7 3 Sudeste 15 Sudeste 0 -- -- 38
2019-10-08 19:00:00 25 13 Este 19 Este 0 -- -- 32
2019-10-08 18:00:00 26.6 12 Este 21 Este 0 -- -- 28
2019-10-08 17:00:00 26.8 12 Este 25 Nordeste 0 -- -- 27
2019-10-08 16:00:00 27.5 9 Este 25 Este 0 -- -- 28
2019-10-08 15:00:00 27 6 Noroeste 13 Noroeste 0 -- -- 33
2019-10-08 14:00:00 26.4 3 Nordeste 13 Noroeste 0 -- -- 33
2019-10-08 13:00:00 24.9 5 Noroeste 12 Norte 0 -- -- 31
2019-10-08 12:00:00 23.3 4 Noroeste 8 Oeste 0 -- -- 28
2019-10-08 11:00:00 21.6 3 Noroeste 8 Norte 0 -- -- 24
2019-10-08 10:00:00 18.7 0 Calma 8 Sur 0 -- -- 34
2019-10-08 09:00:00 14 4 Sur 7 Sur 0 -- -- 49
2019-10-08 08:00:00 13.7 6 Sur 10 Oeste 0 -- -- 54
2019-10-08 07:00:00 14.7 5 Oeste 10 Oeste 0 -- -- 45
2019-10-08 06:00:00 14.8 3 Sudoeste 13 Sur 0 -- -- 49
2019-10-08 05:00:00 15 2 Sudoeste 6 Sudoeste 0 -- -- 48
2019-10-08 04:00:00 15.4 4 Oeste 12 Oeste 0 -- -- 49
2019-10-08 03:00:00 15.7 6 Sur 10 Oeste 0 -- -- 38
2019-10-08 02:00:00 16.4 7 Oeste 16 Oeste 0 -- -- 29
2019-10-08 01:00:00 15.9 5 Oeste 17 Oeste 0 -- -- 33
2019-10-08 00:00:00 16.7 10 Oeste 19 Oeste 0 -- -- 33
2019-10-07 23:00:00 17.5 13 Oeste 24 Oeste 0 -- -- 37
2019-10-07 22:00:00 18.1 11 Oeste 24 Oeste 0 -- -- 40
2019-10-07 21:00:00 18.8 13 Noroeste 29 Noroeste 0 -- -- 41
2019-10-07 20:00:00 20.2 18 Noroeste 35 Noroeste 0 -- -- 42
2019-10-07 19:00:00 22.5 19 Noroeste 44 Noroeste 0 -- -- 44
2019-10-07 18:00:00 23.4 28 Noroeste 48 Oeste 0 -- -- 39
2019-10-07 17:00:00 23.7 31 Noroeste 51 Noroeste 0 -- -- 36
2019-10-07 16:00:00 23.9 30 Noroeste 49 Noroeste 0 -- -- 33
2019-10-07 15:00:00 23.2 32 Noroeste 47 Noroeste 0 -- -- 33
2019-10-07 14:00:00 21 24 Noroeste 48 Oeste 0 -- -- 33
2019-10-07 13:00:00 21.2 25 Noroeste 42 Oeste 0 -- -- 30
2019-10-07 12:00:00 19.6 26 Noroeste 48 Oeste 0 -- -- 28
2019-10-07 11:00:00 18 20 Oeste 38 Oeste 0 -- -- 34
2019-10-07 10:00:00 16 21 Oeste 34 Oeste 0 -- -- 43
2019-10-07 09:00:00 14.2 22 Oeste 39 Oeste 0 -- -- 49
2019-10-07 08:00:00 12.9 20 Oeste 34 Oeste 0 -- -- 58
2019-10-07 07:00:00 12 18 Oeste 32 Oeste 0 -- -- 67
2019-10-07 06:00:00 11.6 15 Oeste 34 Oeste 0 -- -- 74
2019-10-07 05:00:00 11.7 19 Oeste 35 Oeste 0 -- -- 75
2019-10-07 04:00:00 11.9 19 Oeste 37 Noroeste 0 -- -- 75
2019-10-07 03:00:00 12.3 23 Noroeste 40 Noroeste 0 -- -- 74
2019-10-07 02:00:00 12.8 16 Oeste 32 Oeste 0 -- -- 76
2019-10-07 01:00:00 12.9 17 Noroeste 38 Noroeste 0 -- -- 79
2019-10-07 00:00:00 13.4 13 Noroeste 30 Noroeste 0 -- -- 78
2019-10-06 23:00:00 13.9 12 Noroeste 27 Noroeste 0 -- -- 75
2019-10-06 22:00:00 14.7 12 Noroeste 27 Noroeste 0 -- -- 71
2019-10-06 21:00:00 15.7 15 Noroeste 31 Noroeste 0 -- -- 68
2019-10-06 20:00:00 16.8 20 Noroeste 39 Noroeste 0 -- -- 66
2019-10-06 19:00:00 18.9 22 Noroeste 34 Norte 0 -- -- 60
2019-10-06 18:00:00 21.9 13 Noroeste 26 Noroeste 0 -- -- 48
2019-10-06 17:00:00 21.8 14 Noroeste 35 Noroeste 0 -- -- 47
2019-10-06 16:00:00 21.7 17 Noroeste 31 Norte 0 -- -- 47
2019-10-06 15:00:00 20.8 19 Noroeste 30 Noroeste 0 -- -- 50
2019-10-06 14:00:00 21 12 Noroeste 27 Noroeste 0 -- -- 49
2019-10-06 13:00:00 18.9 6 Noroeste 16 Noroeste 0 -- -- 56
2019-10-06 12:00:00 16.7 10 Noroeste 32 Noroeste 0 -- -- 64
2019-10-06 11:00:00 15.7 15 Noroeste 32 Noroeste 0 -- -- 67
2019-10-06 10:00:00 13.6 17 Noroeste 28 Noroeste 0 -- -- 79
2019-10-06 09:00:00 11.2 17 Noroeste 28 Noroeste 0 -- -- 93
2019-10-06 08:00:00 9.3 4 Noroeste 8 Noroeste 0 -- -- 87
2019-10-06 07:00:00 9.7 0 Calma 10 Norte 0 -- -- 79
2019-10-06 06:00:00 11 3 Oeste 15 Sur 0 -- -- 77
2019-10-06 05:00:00 11.9 9 Sur 14 Sur 0 -- -- 74
2019-10-06 04:00:00 11.9 3 Sudoeste 6 Sudoeste 0 -- -- 73
2019-10-06 03:00:00 12.4 3 Sudoeste 5 Sur 0 -- -- 71
2019-10-06 02:00:00 13.2 6 Sur 9 Sur 0 -- -- 70
2019-10-06 01:00:00 13.7 4 Sur 10 Sur 0 -- -- 69
2019-10-06 00:00:00 14.5 6 Sur 10 Sur 0 -- -- 67
2019-10-05 23:00:00 15.5 7 Sur 9 Sur 0 -- -- 64
2019-10-05 22:00:00 16.3 6 Sur 9 Sur 0 -- -- 61
2019-10-05 21:00:00 17.8 2 Sur 8 Este 0 -- -- 56
2019-10-05 20:00:00 20.3 6 Este 13 Nordeste 0 -- -- 49
2019-10-05 19:00:00 22.8 11 Nordeste 19 Norte 0 -- -- 44
2019-10-05 18:00:00 24.1 12 Norte 22 Norte 0 -- -- 40
2019-10-05 17:00:00 25.3 10 Norte 23 Norte 0 -- -- 37
2019-10-05 16:00:00 25.2 8 Nordeste 21 Norte 0 -- -- 38
2019-10-05 15:00:00 24.4 11 Norte 23 Norte 0 -- -- 42
2019-10-05 14:00:00 23.9 10 Noroeste 20 Noroeste 0 -- -- 44
2019-10-05 13:00:00 22.2 7 Norte 14 Norte 0 -- -- 51
2019-10-05 12:00:00 19.7 5 Nordeste 10 Nordeste 0 -- -- 59
2019-10-05 11:00:00 16.9 3 Nordeste 6 Sudeste 0 -- -- 70
2019-10-05 10:00:00 14 2 Nordeste 9 Nordeste 0 -- -- 82
2019-10-05 09:00:00 10.4 0 Calma 7 Sur 0 -- -- 94
2019-10-05 08:00:00 9.4 0 Calma 6 Sur 0 -- -- 91
2019-10-05 07:00:00 10.1 2 Sur 6 Sur 0 -- -- 89
2019-10-05 06:00:00 10.8 6 Sur 7 Sur 0 -- -- 89
2019-10-05 05:00:00 12 3 Sudoeste 11 Oeste 0 -- -- 86
2019-10-05 04:00:00 12.7 7 Oeste 13 Oeste 0 -- -- 85
2019-10-05 03:00:00 13 9 Oeste 17 Noroeste 0 -- -- 83
2019-10-05 02:00:00 14 10 Noroeste 18 Noroeste 0 -- -- 78
2019-10-05 01:00:00 15 6 Oeste 15 Oeste 0 -- -- 76
2019-10-05 00:00:00 15.8 9 Oeste 23 Noroeste 0 -- -- 74
2019-10-04 23:00:00 16.9 13 Noroeste 24 Oeste 0 -- -- 67
2019-10-04 22:00:00 17 3 Oeste 6 Noroeste 0 -- -- 62
2019-10-04 21:00:00 18.4 2 Noroeste 6 Este 0 -- -- 57
2019-10-04 20:00:00 21 5 Este 13 Norte 0 -- -- 51
2019-10-04 19:00:00 23.4 6 Norte 17 Norte 0 -- -- 45
2019-10-04 18:00:00 24.8 8 Noroeste 15 Norte 0 -- -- 40
2019-10-04 17:00:00 25.4 8 Noroeste 18 Norte 0 -- -- 38
2019-10-04 16:00:00 24.7 12 Norte 23 Noroeste 0 -- -- 39
2019-10-04 15:00:00 24.2 11 Norte 27 Noroeste 0 -- -- 41
2019-10-04 14:00:00 24.3 15 Norte 23 Norte 0 -- -- 38
2019-10-04 13:00:00 23.9 6 Noroeste 16 Noroeste 0 -- -- 36
2019-10-04 12:00:00 22.1 5 Noroeste 11 Norte 0 -- -- 41
2019-10-04 11:00:00 20.2 7 Oeste 14 Oeste 0 -- -- 52
2019-10-04 10:00:00 18.2 2 Sur 10 Sur 0 -- -- 50
2019-10-04 09:00:00 14 3 Sur 10 Sudoeste 0 -- -- 64
2019-10-04 08:00:00 13.4 7 Sudoeste 10 Sur 0 -- -- 65
2019-10-04 07:00:00 13.3 8 Sudoeste 14 Sudoeste 0 -- -- 63
2019-10-04 06:00:00 13.5 7 Sur 14 Sudoeste 0 -- -- 64
2019-10-04 05:00:00 14 4 Sur 19 Sudoeste 0 -- -- 63
2019-10-04 04:00:00 14.3 10 Oeste 17 Oeste 0 -- -- 62
2019-10-04 03:00:00 15.1 10 Oeste 25 Oeste 0 -- -- 58
2019-10-04 02:00:00 15.2 14 Oeste 23 Oeste 0 -- -- 51
2019-10-04 01:00:00 14.9 7 Oeste 22 Oeste 0 -- -- 50
2019-10-04 00:00:00 15.5 6 Oeste 17 Oeste 0 -- -- 52
2019-10-03 23:00:00 16.3 5 Sudoeste 17 Oeste 0 -- -- 52
2019-10-03 22:00:00 17.3 9 Oeste 21 Oeste 0 -- -- 49
2019-10-03 21:00:00 18.2 12 Oeste 21 Noroeste 0 -- -- 47
2019-10-03 20:00:00 19.1 9 Noroeste 22 Norte 0 -- -- 45
2019-10-03 19:00:00 21.6 12 Norte 27 Norte 0 -- -- 38
2019-10-03 18:00:00 23.9 12 Norte 24 Norte 0 -- -- 26
2019-10-03 17:00:00 24.2 12 Norte 32 Norte 0 -- -- 18
2019-10-03 16:00:00 24.1 16 Norte 30 Norte 0 -- -- 18
2019-10-03 15:00:00 24.1 15 Noroeste 30 Noroeste 0 -- -- 20
2019-10-03 14:00:00 22.4 16 Noroeste 28 Noroeste 0 -- -- 24
2019-10-03 13:00:00 20 15 Noroeste 28 Noroeste 0 -- -- 37
2019-10-03 12:00:00 17.9 9 Oeste 27 Noroeste 0 -- -- 43
2019-10-03 11:00:00 14.3 8 Oeste 15 Oeste 0 -- -- 58
2019-10-03 10:00:00 11.6 0 Calma 7 Sudoeste 0 -- -- 74
2019-10-03 09:00:00 9 5 Sur 9 Sur 0 -- -- 83
2019-10-03 08:00:00 9.6 6 Sudoeste 14 Sudoeste 0 -- -- 82
2019-10-03 07:00:00 10.3 5 Sudoeste 17 Oeste 0 -- -- 76
2019-10-03 06:00:00 10.7 7 Sudoeste 22 Oeste 0 -- -- 76
2019-10-03 05:00:00 11.1 15 Oeste 24 Oeste 0 -- -- 76
2019-10-03 04:00:00 11.4 12 Oeste 39 Noroeste 0 -- -- 75
2019-10-03 03:00:00 11.6 18 Oeste 35 Oeste 0 -- -- 76
2019-10-03 02:00:00 11.8 14 Oeste 33 Oeste 0 -- -- 77
2019-10-03 01:00:00 11.9 16 Noroeste 40 Noroeste 0 -- -- 78
2019-10-03 00:00:00 12 12 Noroeste 27 Oeste 0 -- -- 81
2019-10-02 23:00:00 12.7 13 Oeste 41 Noroeste 0 -- -- 79
2019-10-02 22:00:00 13.6 19 Noroeste 39 Noroeste 0 -- -- 72
2019-10-02 21:00:00 14.5 21 Noroeste 43 Noroeste 0 -- -- 67
2019-10-02 20:00:00 15.6 24 Noroeste 46 Noroeste 0 -- -- 61
2019-10-02 19:00:00 17.1 27 Noroeste 48 Noroeste 0 -- -- 54
2019-10-02 18:00:00 18.3 29 Noroeste 45 Noroeste 0 -- -- 51
2019-10-02 17:00:00 19 29 Noroeste 53 Noroeste 0 -- -- 48
2019-10-02 16:00:00 19.2 30 Noroeste 55 Noroeste 0 -- -- 48
2019-10-02 15:00:00 19.4 31 Noroeste 54 Noroeste 0 -- -- 48
2019-10-02 14:00:00 19.2 30 Noroeste 53 Noroeste 0 -- -- 47
2019-10-02 13:00:00 18.4 30 Noroeste 51 Noroeste 0 -- -- 49
2019-10-02 12:00:00 17.5 27 Noroeste 46 Noroeste 0 -- -- 50
2019-10-02 11:00:00 16.4 24 Noroeste 38 Oeste 0 -- -- 56
2019-10-02 10:00:00 14.9 17 Noroeste 29 Noroeste 0 -- -- 70
2019-10-02 09:00:00 12.9 8 Oeste 22 Oeste 0 -- -- 83
2019-10-02 08:00:00 12.3 9 Noroeste 21 Noroeste 0 -- -- 85
2019-10-02 07:00:00 12.6 12 Noroeste 22 Noroeste 0 -- -- 87
2019-10-02 06:00:00 13 12 Noroeste 34 Oeste 0 -- -- 86
2019-10-02 05:00:00 13.2 15 Noroeste 33 Noroeste 0 -- -- 85
2019-10-02 04:00:00 13.5 19 Noroeste 29 Oeste 0 -- -- 83
2019-10-02 03:00:00 14.2 11 Oeste 19 Oeste 0 -- -- 80
2019-10-02 02:00:00 14.3 6 Noroeste 17 Noroeste 0 -- -- 78
2019-10-02 01:00:00 15.6 9 Noroeste 18 Oeste 0 -- -- 74
2019-10-02 00:00:00 16.7 11 Oeste 22 Oeste 0 -- -- 70
2019-10-01 23:00:00 18.1 12 Noroeste 24 Oeste 0 -- -- 64
2019-10-01 22:00:00 19.1 7 Oeste 20 Oeste 0 -- -- 60
2019-10-01 21:00:00 20.5 9 Oeste 15 Noroeste 0 -- -- 53
2019-10-01 20:00:00 22.5 7 Noroeste 31 Oeste 0 -- -- 45
2019-10-01 19:00:00 25.3 18 Oeste 33 Oeste 0 -- -- 34
2019-10-01 18:00:00 26.7 16 Noroeste 42 Noroeste 0 -- -- 31
2019-10-01 17:00:00 27 21 Noroeste 37 Noroeste 0 -- -- 28
2019-10-01 16:00:00 27.8 15 Noroeste 31 Oeste 0 -- -- 27
2019-10-01 15:00:00 27.7 18 Noroeste 40 Oeste 0 -- -- 22
2019-10-01 14:00:00 27.5 21 Noroeste 39 Noroeste 0 -- -- 22
2019-10-01 13:00:00 27.1 15 Noroeste 24 Noroeste 0 -- -- 24
2019-10-01 12:00:00 25.8 14 Noroeste 26 Noroeste 0 -- -- 26
2019-10-01 11:00:00 24.2 7 Oeste 13 Oeste 0 -- -- 29
2019-10-01 10:00:00 21.3 3 Sudoeste 13 Sur 0 -- -- 37
2019-10-01 09:00:00 18.8 5 Sudoeste 14 Sudoeste 0 -- -- 42
2019-10-01 08:00:00 16.9 5 Sudoeste 16 Sudoeste 0 -- -- 50
2019-10-01 07:00:00 18 8 Sur 14 Sur 0 -- -- 41
2019-10-01 06:00:00 15.3 5 Sur 10 Sur 0 -- -- 48
2019-10-01 05:00:00 14.6 6 Sur 10 Sur 0 -- -- 51
2019-10-01 04:00:00 14.8 4 Sur 9 Sur 0 -- -- 51
2019-10-01 03:00:00 17.1 5 Sur 13 Sur 0 -- -- 45
2019-10-01 02:00:00 18.1 10 Sur 16 Sur 0 -- -- 44
2019-10-01 01:00:00 17.8 10 Sur 14 Sur 0 -- -- 49
2019-10-01 00:00:00 18 11 Sur 17 Sur 0 -- -- 49
2019-09-30 23:00:00 18.6 12 Sur 14 Sur 0 -- -- 47
2019-09-30 22:00:00 19.1 7 Sur 10 Sur 0 -- -- 46
2019-09-30 21:00:00 20.7 3 Sur 8 Nordeste 0 -- -- 42
2019-09-30 20:00:00 23.3 5 Nordeste 19 Este 0 -- -- 37
2019-09-30 19:00:00 26.1 13 Este 27 Este 0 -- -- 33
2019-09-30 18:00:00 27.4 14 Este 25 Este 0 -- -- 30
2019-09-30 17:00:00 28 14 Este 23 Este 0 -- -- 29
2019-09-30 16:00:00 28 11 Este 26 Este 0 -- -- 29
2019-09-30 15:00:00 28.1 11 Nordeste 28 Nordeste 0 -- -- 29
2019-09-30 14:00:00 28.2 12 Norte 23 Nordeste 0 -- -- 29
2019-09-30 13:00:00 28.3 3 Sudeste 20 Este 0 -- -- 27
2019-09-30 12:00:00 26.3 3 Norte 9 Norte 0 -- -- 30
2019-09-30 11:00:00 24.8 3 Oeste 7 Norte 0 -- -- 33
2019-09-30 10:00:00 21.4 2 Sur 8 Sudeste 0 -- -- 40
2019-09-30 09:00:00 16.7 4 Sur 14 Sur 0 -- -- 47
2019-09-30 08:00:00 15.5 11 Sur 14 Sur 0 -- -- 47
2019-09-30 07:00:00 14.6 6 Sur 9 Sur 0 -- -- 50
2019-09-30 06:00:00 15.6 7 Sur 12 Sur 0 -- -- 46
2019-09-30 05:00:00 16.5 10 Sur 12 Sur 0 -- -- 44
2019-09-30 04:00:00 17.1 4 Sudoeste 12 Sur 0 -- -- 41
2019-09-30 03:00:00 17.2 9 Sur 13 Sur 0 -- -- 41
2019-09-30 02:00:00 18.1 8 Sur 11 Sur 0 -- -- 40
2019-09-30 01:00:00 18.1 7 Sur 8 Sur 0 -- -- 42
2019-09-30 00:00:00 18.6 2 Sudoeste 12 Sur 0 -- -- 42
2019-09-29 23:00:00 19.1 9 Sur 13 Sur 0 -- -- 46
2019-09-29 22:00:00 20 6 Sur 11 Sur 0 -- -- 45
2019-09-29 21:00:00 21.6 5 Sur 10 Sur 0 -- -- 41
2019-09-29 20:00:00 24.6 9 Este 17 Nordeste 0 -- -- 36
2019-09-29 19:00:00 27.7 9 Nordeste 19 Noroeste 0 -- -- 32
2019-09-29 18:00:00 30.2 13 Noroeste 25 Sur 0 -- -- 24
2019-09-29 17:00:00 29.8 13 Norte 27 Oeste 0 -- -- 23
2019-09-29 16:00:00 -- -- -- -- -- -- -- -- --
2019-09-29 15:00:00 -- -- -- -- -- -- -- -- --
2019-09-29 14:00:00 -- -- -- -- -- -- -- -- --
2019-09-29 13:00:00 -- -- -- -- -- -- -- -- --
2019-09-29 12:00:00 -- -- -- -- -- -- -- -- --
2019-09-29 11:00:00 -- -- -- -- -- -- -- -- --
2019-09-29 10:00:00 -- -- -- -- -- -- -- -- --
2019-09-29 09:00:00 -- -- -- -- -- -- -- -- --
2019-09-29 08:00:00 -- -- -- -- -- -- -- -- --
2019-09-29 07:00:00 -- -- -- -- -- -- -- -- --
2019-09-29 06:00:00 -- -- -- -- -- -- -- -- --
2019-09-29 05:00:00 -- -- -- -- -- -- -- -- --
2019-09-29 04:00:00 -- -- -- -- -- -- -- -- --
2019-09-29 03:00:00 -- -- -- -- -- -- -- -- --
2019-09-29 02:00:00 -- -- -- -- -- -- -- -- --
2019-09-29 01:00:00 -- -- -- -- -- -- -- -- --
2019-09-29 00:00:00 -- -- -- -- -- -- -- -- --
2019-09-28 23:00:00 -- -- -- -- -- -- -- -- --
2019-09-28 22:00:00 -- -- -- -- -- -- -- -- --
2019-09-28 21:00:00 -- -- -- -- -- -- -- -- --
2019-09-28 20:00:00 -- -- -- -- -- -- -- -- --
2019-09-28 19:00:00 -- -- -- -- -- -- -- -- --
2019-09-28 18:00:00 -- -- -- -- -- -- -- -- --
2019-09-28 17:00:00 -- -- -- -- -- -- -- -- --
2019-09-28 16:00:00 -- -- -- -- -- -- -- -- --
2019-09-28 15:00:00 -- -- -- -- -- -- -- -- --
2019-09-28 14:00:00 -- -- -- -- -- -- -- -- --
2019-09-28 13:00:00 -- -- -- -- -- -- -- -- --
2019-09-28 12:00:00 -- -- -- -- -- -- -- -- --
2019-09-28 11:00:00 -- -- -- -- -- -- -- -- --
2019-09-28 10:00:00 -- -- -- -- -- -- -- -- --
2019-09-28 09:00:00 -- -- -- -- -- -- -- -- --
2019-09-28 08:00:00 -- -- -- -- -- -- -- -- --
2019-09-28 07:00:00 -- -- -- -- -- -- -- -- --
2019-09-28 06:00:00 -- -- -- -- -- -- -- -- --
2019-09-28 05:00:00 -- -- -- -- -- -- -- -- --
2019-09-28 04:00:00 -- -- -- -- -- -- -- -- --
2019-09-28 03:00:00 -- -- -- -- -- -- -- -- --
2019-09-28 02:00:00 -- -- -- -- -- -- -- -- --
2019-09-28 01:00:00 -- -- -- -- -- -- -- -- --
2019-09-28 00:00:00 -- -- -- -- -- -- -- -- --
2019-09-27 23:00:00 -- -- -- -- -- -- -- -- --
2019-09-27 22:00:00 -- -- -- -- -- -- -- -- --
2019-09-27 21:00:00 -- -- -- -- -- -- -- -- --
2019-09-27 20:00:00 -- -- -- -- -- -- -- -- --
2019-09-27 19:00:00 -- -- -- -- -- -- -- -- --
2019-09-27 18:00:00 -- -- -- -- -- -- -- -- --
2019-09-27 17:00:00 -- -- -- -- -- -- -- -- --
2019-09-27 16:00:00 -- -- -- -- -- -- -- -- --
2019-09-27 15:00:00 -- -- -- -- -- -- -- -- --
2019-09-27 14:00:00 -- -- -- -- -- -- -- -- --
2019-09-27 13:00:00 -- -- -- -- -- -- -- -- --
2019-09-27 12:00:00 -- -- -- -- -- -- -- -- --
2019-09-27 11:00:00 -- -- -- -- -- -- -- -- --
2019-09-27 10:00:00 -- -- -- -- -- -- -- -- --
2019-09-27 09:00:00 -- -- -- -- -- -- -- -- --
2019-09-27 08:00:00 -- -- -- -- -- -- -- -- --
2019-09-27 07:00:00 -- -- -- -- -- -- -- -- --
2019-09-27 06:00:00 -- -- -- -- -- -- -- -- --
2019-09-27 05:00:00 -- -- -- -- -- -- -- -- --
2019-09-27 04:00:00 -- -- -- -- -- -- -- -- --
2019-09-27 03:00:00 -- -- -- -- -- -- -- -- --
2019-09-27 02:00:00 -- -- -- -- -- -- -- -- --
2019-09-27 01:00:00 -- -- -- -- -- -- -- -- --
2019-09-27 00:00:00 -- -- -- -- -- -- -- -- --
2019-09-26 23:00:00 -- -- -- -- -- -- -- -- --
2019-09-26 22:00:00 -- -- -- -- -- -- -- -- --
2019-09-26 21:00:00 20.7 6 Sudeste 10 Sudeste 0 -- -- 48
2019-09-26 20:00:00 23.3 7 Este 16 Este 0 -- -- 42
2019-09-26 19:00:00 25.3 10 Este 22 Este 0 -- -- 38
2019-09-26 18:00:00 26.1 14 Nordeste 26 Nordeste 0 -- -- 36
2019-09-26 17:00:00 27.1 14 Nordeste 23 Este 0 -- -- 34
2019-09-26 16:00:00 27.9 9 Noroeste 16 Noroeste 0 -- -- 31
2019-09-26 15:00:00 26.6 5 Norte 18 Noroeste 0 -- -- 34
2019-09-26 14:00:00 24.8 5 Nordeste 13 Sur 0 -- -- 37
2019-09-26 13:00:00 23.9 5 Norte 25 Noroeste 0 -- -- 38
2019-09-26 12:00:00 22.5 8 Oeste 17 Oeste 0 -- -- 42
2019-09-26 11:00:00 20.8 6 Oeste 16 Sur 0 -- -- 47
2019-09-26 10:00:00 18.5 9 Sudoeste 16 Sudoeste 0 -- -- 54
2019-09-26 09:00:00 14.4 6 Sur 9 Sur 0 -- -- 67
2019-09-26 08:00:00 13.1 6 Sur 9 Sur 0 -- -- 70
2019-09-26 07:00:00 13 5 Sur 9 Sur 0 -- -- 70
2019-09-26 06:00:00 12.9 7 Sur 10 Sur 0 -- -- 71
2019-09-26 05:00:00 12.9 6 Sur 11 Sur 0 -- -- 72
2019-09-26 04:00:00 12.8 6 Sur 10 Sur 0 -- -- 72
2019-09-26 03:00:00 13.2 8 Sur 10 Sur 0 -- -- 70
2019-09-26 02:00:00 13.6 9 Sur 13 Sur 0 -- -- 69
2019-09-26 01:00:00 14.4 6 Sur 9 Oeste 0 -- -- 66
2019-09-26 00:00:00 15.3 6 Oeste 10 Oeste 0 -- -- 62
2019-09-25 23:00:00 16.1 5 Oeste 13 Oeste 0 -- -- 59
2019-09-25 22:00:00 16.5 5 Oeste 8 Oeste 0 -- -- 58
2019-09-25 21:00:00 17.8 3 Noroeste 8 Norte 0 -- -- 54
2019-09-25 20:00:00 19.3 6 Norte 21 Oeste 0 -- -- 51
2019-09-25 19:00:00 21.5 12 Oeste 25 Oeste 0 -- -- 39
2019-09-25 18:00:00 22.6 11 Noroeste 27 Oeste 0 -- -- 36
2019-09-25 17:00:00 22.7 14 Oeste 29 Sudoeste 0 -- -- 36
2019-09-25 16:00:00 22.4 15 Oeste 27 Noroeste 0 -- -- 37
2019-09-25 15:00:00 21.8 12 Oeste 25 Oeste 0 -- -- 44
2019-09-25 14:00:00 20.8 12 Noroeste 26 Noroeste 0 -- -- 49
2019-09-25 13:00:00 19.5 13 Noroeste 24 Noroeste 0 -- -- 55
2019-09-25 12:00:00 18.3 12 Noroeste 21 Noroeste 0 -- -- 58
2019-09-25 11:00:00 16.5 12 Noroeste 25 Noroeste 0 -- -- 67
2019-09-25 10:00:00 14.5 16 Noroeste 27 Oeste 0 -- -- 77
2019-09-25 09:00:00 13.3 14 Noroeste 23 Noroeste 0 -- -- 84
2019-09-25 08:00:00 13 8 Noroeste 14 Noroeste 0 -- -- 86
2019-09-25 07:00:00 13.6 5 Oeste 15 Noroeste 0 -- -- 84
2019-09-25 06:00:00 14.2 4 Nordeste 19 Noroeste 0 -- -- 81
2019-09-25 05:00:00 16.1 11 Noroeste 23 Oeste 0 -- -- 78
2019-09-25 04:00:00 18.1 13 Oeste 23 Oeste 0 -- -- 70
2019-09-25 03:00:00 17.2 3 Sudoeste 18 Oeste 0 -- -- 73
2019-09-25 02:00:00 18.3 6 Oeste 16 Oeste 0 -- -- 71
2019-09-25 01:00:00 18.4 7 Noroeste 14 Oeste 0 -- -- 71
2019-09-25 00:00:00 19 5 Noroeste 13 Noroeste 0 -- -- 68
2019-09-24 23:00:00 19.5 5 Sur 9 Oeste 0 -- -- 64
2019-09-24 22:00:00 20.6 5 Noroeste 9 Noroeste 0 -- -- 59
2019-09-24 21:00:00 22.3 6 Noroeste 21 Noroeste 0 -- -- 53
2019-09-24 20:00:00 25.6 12 Noroeste 29 Oeste 0 -- -- 40
2019-09-24 19:00:00 27.2 19 Oeste 33 Oeste 0 -- -- 38
2019-09-24 18:00:00 28.1 18 Oeste 37 Noroeste 0 -- -- 35
2019-09-24 17:00:00 28.6 19 Sudoeste 35 Oeste 0 -- -- 33
2019-09-24 16:00:00 28.7 15 Oeste 33 Oeste 0 -- -- 31
2019-09-24 15:00:00 28.1 18 Oeste 33 Sudoeste 0 -- -- 29
2019-09-24 14:00:00 27.1 19 Oeste 37 Oeste 0 -- -- 31
2019-09-24 13:00:00 26.2 15 Oeste 28 Oeste 0 -- -- 33
2019-09-24 12:00:00 23.9 12 Sudoeste 29 Sudoeste 0 -- -- 38
2019-09-24 11:00:00 22.4 18 Sudoeste 32 Oeste 0 -- -- 41
2019-09-24 10:00:00 20.3 7 Oeste 15 Sudoeste 0 -- -- 47
2019-09-24 09:00:00 17.5 8 Sur 15 Sudoeste 0 -- -- 55
2019-09-24 08:00:00 16.6 4 Oeste 14 Sudoeste 0 -- -- 56
2019-09-24 07:00:00 17.2 2 Norte 16 Sur 0 -- -- 54
2019-09-24 06:00:00 18.5 13 Sur 32 Sudoeste 0 -- -- 50
2019-09-24 05:00:00 15.2 5 Oeste 15 Sudoeste 0 -- -- 64
2019-09-24 04:00:00 16.3 6 Sur 12 Sudeste 0 -- -- 60
2019-09-24 03:00:00 15.9 2 Sudeste 10 Sur 0 -- -- 63
2019-09-24 02:00:00 17.1 6 Sudeste 14 Sudoeste 0 -- -- 57
2019-09-24 01:00:00 15.8 7 Sur 12 Sur 0 -- -- 63
2019-09-24 00:00:00 16.4 4 Sur 10 Sudeste 0 -- -- 60
2019-09-23 23:00:00 17 8 Sur 15 Sur 0 -- -- 55
2019-09-23 22:00:00 17.3 6 Sur 12 Sudeste 0 -- -- 56
2019-09-23 21:00:00 18.4 8 Sudeste 12 Este 0 -- -- 51
2019-09-23 20:00:00 20.4 7 Nordeste 14 Norte 0 -- -- 45
2019-09-23 19:00:00 22.4 10 Norte 16 Norte 0 -- -- 37
2019-09-23 18:00:00 23.6 11 Oeste 24 Oeste 0 -- -- 34
2019-09-23 17:00:00 24.2 11 Oeste 22 Oeste 0 -- -- 35
2019-09-23 16:00:00 23.9 10 Sudoeste 21 Sudoeste 0 -- -- 36
2019-09-23 15:00:00 23 9 Sudoeste 18 Sudoeste 0 -- -- 37
2019-09-23 14:00:00 22.2 10 Oeste 18 Oeste 0 -- -- 40
2019-09-23 13:00:00 21.6 8 Oeste 15 Oeste 0 -- -- 42
2019-09-23 12:00:00 20.1 7 Oeste 13 Oeste 0 -- -- 45
2019-09-23 11:00:00 18.8 7 Sudoeste 15 Sudoeste 0 -- -- 48
2019-09-23 10:00:00 16.6 7 Sudoeste 14 Sudoeste 0 -- -- 59
2019-09-23 09:00:00 12.5 4 Sur 10 Sur 0 -- -- 76
2019-09-23 08:00:00 11.3 5 Sur 8 Sur 0 -- -- 77
2019-09-23 07:00:00 11.2 5 Sur 10 Sur 0 -- -- 77
2019-09-23 06:00:00 11.2 9 Sur 12 Sur 0 -- -- 78
2019-09-23 05:00:00 11.6 7 Sur 13 Sudoeste 0 -- -- 78
2019-09-23 04:00:00 12.2 5 Sur 10 Sur 0 -- -- 77
2019-09-23 03:00:00 12.1 5 Sur 9 Sur 0 -- -- 80
2019-09-23 02:00:00 12.4 6 Sur 9 Sur 0 -- -- 80
2019-09-23 01:00:00 13.4 7 Sur 10 Sudoeste 0 -- -- 76
2019-09-23 00:00:00 14.1 3 Sur 7 Sur 0 -- -- 72
2019-09-22 23:00:00 15.4 3 Oeste 10 Oeste 0 -- -- 64
2019-09-22 22:00:00 16.3 3 Oeste 14 Oeste 0 -- -- 63
2019-09-22 21:00:00 17.4 8 Noroeste 18 Oeste 0 -- -- 58
2019-09-22 20:00:00 19.2 12 Oeste 26 Noroeste 0 -- -- 55
2019-09-22 19:00:00 20.9 17 Noroeste 27 Noroeste 0 -- -- 54
2019-09-22 18:00:00 20.8 14 Noroeste 28 Oeste 0.2 -- -- 58
2019-09-22 17:00:00 19.1 9 Sudoeste 32 Sudoeste 0.6 -- -- 79
2019-09-22 16:00:00 19.2 33 Oeste 49 Oeste 0 -- -- 73
2019-09-22 15:00:00 23.7 20 Noroeste 38 Noroeste 0 -- -- 50
2019-09-22 14:00:00 24.2 21 Sudoeste 39 Oeste 0 -- -- 43
2019-09-22 13:00:00 22.8 21 Oeste 41 Oeste 0 -- -- 53
2019-09-22 12:00:00 22.8 25 Sudoeste 38 Sudoeste 0 -- -- 53
2019-09-22 11:00:00 21.7 12 Sudoeste 34 Oeste 0 -- -- 59
2019-09-22 10:00:00 19.7 7 Sur 14 Sudoeste 0 -- -- 65
2019-09-22 09:00:00 17.7 5 Sudeste 12 Sur 0 -- -- 71
2019-09-22 08:00:00 17.1 8 Sur 16 Sudoeste 0 -- -- 74
2019-09-22 07:00:00 17.1 11 Sudoeste 16 Sudoeste 0 -- -- 76
2019-09-22 06:00:00 17.8 6 Sur 15 Sudoeste 0 -- -- 71
2019-09-22 05:00:00 18.9 10 Sudoeste 22 Sudoeste 0 -- -- 65
2019-09-22 04:00:00 18.3 8 Sur 22 Sur 0 -- -- 70
2019-09-22 03:00:00 18.6 10 Sur 18 Sur 0 -- -- 72
2019-09-22 02:00:00 18.7 8 Sur 14 Sudoeste 0 -- -- 73
2019-09-22 01:00:00 18.8 4 Sudoeste 15 Sudoeste 0 -- -- 70
2019-09-22 00:00:00 18.5 8 Sur 12 Sur 0 -- -- 71
2019-09-21 23:00:00 19 2 Este 6 Norte 0 -- -- 71
2019-09-21 22:00:00 20.4 5 Noroeste 12 Oeste 0 -- -- 66
2019-09-21 21:00:00 21.3 4 Sur 8 Sudeste 0 -- -- 63
2019-09-21 20:00:00 22.5 3 Nordeste 14 Sudoeste 0 -- -- 57
2019-09-21 19:00:00 23.5 9 Sudoeste 19 Sudoeste 0 -- -- 46
2019-09-21 18:00:00 24.3 12 Sudoeste 28 Oeste 0 -- -- 44
2019-09-21 17:00:00 25.6 14 Sudoeste 25 Sudoeste 0 -- -- 42
2019-09-21 16:00:00 24.6 14 Sudoeste 31 Sudoeste 0 -- -- 44
2019-09-21 15:00:00 24.8 15 Sudoeste 28 Sudoeste 0 -- -- 45
2019-09-21 14:00:00 24 15 Sudoeste 25 Sudoeste 0 -- -- 49
2019-09-21 13:00:00 22.4 4 Sudoeste 17 Este 0 -- -- 55
2019-09-21 12:00:00 21.2 10 Nordeste 16 Nordeste 0 -- -- 66
2019-09-21 11:00:00 19 5 Sudoeste 13 Norte 0 -- -- 68
2019-09-21 10:00:00 17.3 5 Nordeste 12 Norte 0 -- -- 76
2019-09-21 09:00:00 15.5 5 Sur 18 Sur 0 -- -- 81
2019-09-21 08:00:00 14.8 10 Sudeste 17 Sudeste 0.2 -- -- 86
2019-09-21 07:00:00 15.4 8 Sudeste 20 Sur 0.2 -- -- 83
2019-09-21 06:00:00 15.1 9 Sudeste 17 Sur 0.4 -- -- 87
2019-09-21 05:00:00 15.1 4 Este 10 Sur 0 -- -- 82
2019-09-21 04:00:00 15.5 6 Sur 16 Este 0.2 -- -- 81
2019-09-21 03:00:00 15.9 14 Este 20 Este 0 -- -- 79
2019-09-21 02:00:00 16.8 13 Este 21 Este 0 -- -- 76
2019-09-21 01:00:00 17.1 12 Este 16 Este 0 -- -- 84
2019-09-21 00:00:00 17.1 6 Este 15 Este 0 -- -- 84
2019-09-20 23:00:00 17.8 10 Este 17 Este 0 -- -- 79
2019-09-20 22:00:00 18.8 10 Sudeste 17 Sudeste 0 -- -- 74
2019-09-20 21:00:00 19.7 12 Sudeste 24 Este 0 -- -- 72
2019-09-20 20:00:00 20.6 17 Sudeste 30 Este 0 -- -- 70
2019-09-20 19:00:00 22.3 20 Este 35 Este 0 -- -- 66
2019-09-20 18:00:00 22.6 19 Este 33 Este 0.4 -- -- 64
2019-09-20 17:00:00 22.2 25 Este 42 Este 1.4 -- -- 67
2019-09-20 16:00:00 24.9 19 Este 33 Este 0 -- -- 53
2019-09-20 15:00:00 25.6 23 Este 37 Este 0 -- -- 49
2019-09-20 14:00:00 25.6 9 Sudeste 24 Sudeste 0 -- -- 48
2019-09-20 13:00:00 23.9 13 Este 24 Este 0 -- -- 53
2019-09-20 12:00:00 22.1 11 Este 18 Este 0 -- -- 61
2019-09-20 11:00:00 19.9 12 Este 18 Sudeste 0 -- -- 70
2019-09-20 10:00:00 17.9 3 Nordeste 7 Este 0 -- -- 77
2019-09-20 09:00:00 15.2 0 Calma 9 Sudeste 0 -- -- 87
2019-09-20 08:00:00 14 5 Sur 11 Sudeste 0 -- -- 87
2019-09-20 07:00:00 14.2 5 Sur 13 Sudeste 0 -- -- 86
2019-09-20 06:00:00 14.7 8 Sur 13 Sur 0 -- -- 85
2019-09-20 05:00:00 14.6 8 Sur 13 Sur 0 -- -- 85
2019-09-20 04:00:00 15 4 Sur 7 Sur 0 -- -- 85
2019-09-20 03:00:00 16.4 3 Sudoeste 12 Sudeste 0 -- -- 81
2019-09-20 02:00:00 16.5 10 Sudeste 15 Sudeste 0 -- -- 81
2019-09-20 01:00:00 17.2 5 Sudeste 19 Sur 0 -- -- 77
2019-09-20 00:00:00 17.9 5 Sudeste 15 Sur 0 -- -- 75
2019-09-19 23:00:00 17.7 8 Sudeste 23 Sur 0 -- -- 76
2019-09-19 22:00:00 17.5 7 Sudoeste 24 Sur 0.2 -- -- 80
2019-09-19 21:00:00 17.7 10 Sur 19 Sur 0.2 -- -- 79
2019-09-19 20:00:00 17.3 9 Sudoeste 35 Sur 4.6 -- -- 85
2019-09-19 19:00:00 19.6 18 Sur 28 Nordeste 4.4 -- -- 71
2019-09-19 18:00:00 22.6 16 Nordeste 28 Nordeste 0.8 -- -- 64
2019-09-19 17:00:00 24.7 17 Nordeste 28 Nordeste 0 -- -- 51
2019-09-19 16:00:00 25.1 13 Nordeste 21 Nordeste 0 -- -- 49
2019-09-19 15:00:00 25.6 12 Nordeste 22 Nordeste 0 -- -- 46
2019-09-19 14:00:00 24.9 8 Este 16 Este 0 -- -- 50
2019-09-19 13:00:00 22.7 7 Nordeste 15 Este 0 -- -- 58
2019-09-19 12:00:00 21.4 6 Este 13 Este 0 -- -- 64
2019-09-19 11:00:00 19.1 2 Sudeste 5 Sur 0 -- -- 73
2019-09-19 10:00:00 17 0 Calma 6 Oeste 0 -- -- 80
2019-09-19 09:00:00 13.9 2 Sur 7 Sur 0 -- -- 90
2019-09-19 08:00:00 12.6 4 Sur 6 Sur 0 -- -- 91
2019-09-19 07:00:00 13.2 4 Sur 8 Sur 0 -- -- 90
2019-09-19 06:00:00 13.7 5 Sur 8 Sur 0 -- -- 89
2019-09-19 05:00:00 13.9 6 Sur 8 Sur 0 -- -- 85
2019-09-19 04:00:00 14 3 Sudoeste 6 Sur 0 -- -- 82
2019-09-19 03:00:00 14.4 3 Sur 7 Sur 0 -- -- 79
2019-09-19 02:00:00 15.3 3 Oeste 9 Norte 0 -- -- 75
2019-09-19 01:00:00 16.8 2 Oeste 12 Sur 0 -- -- 70
2019-09-19 00:00:00 15.9 4 Sudoeste 10 Sur 0 -- -- 73
2019-09-18 23:00:00 17 4 Sur 10 Sur 0 -- -- 70
2019-09-18 22:00:00 18.5 4 Oeste 8 Sudeste 0 -- -- 66
2019-09-18 21:00:00 19.2 5 Sur 9 Sur 0 -- -- 65
2019-09-18 20:00:00 20.6 0 Calma 21 Este 0 -- -- 59
2019-09-18 19:00:00 21.8 14 Este 26 Este 0 -- -- 54
2019-09-18 18:00:00 22.4 18 Este 30 Sudeste 0 -- -- 54
2019-09-18 17:00:00 22.6 12 Este 56 Sudeste 0.8 -- -- 57
2019-09-18 16:00:00 25.7 11 Norte 20 Norte 0 -- -- 40
2019-09-18 15:00:00 25.3 9 Norte 22 Norte 0 -- -- 43
2019-09-18 14:00:00 25.6 7 Norte 14 Noroeste 0 -- -- 42
2019-09-18 13:00:00 23.2 4 Norte 18 Norte 0 -- -- 49
2019-09-18 12:00:00 22.2 7 Norte 14 Noroeste 0 -- -- 55
2019-09-18 11:00:00 18.7 3 Oeste 7 Norte 0 -- -- 69
2019-09-18 10:00:00 16.6 3 Este 12 Sudeste 0 -- -- 75
2019-09-18 09:00:00 14.2 0 Calma 5 Sur 0 -- -- 80
2019-09-18 08:00:00 12.2 3 Sur 6 Sur 0 -- -- 84
2019-09-18 07:00:00 13 0 Calma 12 Sudoeste 0 -- -- 82
2019-09-18 06:00:00 14.6 8 Sudoeste 16 Sur 0 -- -- 76
2019-09-18 05:00:00 13.8 3 Sudoeste 9 Sur 0 -- -- 79
2019-09-18 04:00:00 14.5 4 Sur 10 Sudeste 0 -- -- 79
2019-09-18 03:00:00 16 6 Sudeste 15 Este 0 -- -- 75
2019-09-18 02:00:00 17.7 9 Sur 17 Sur 0 -- -- 64
2019-09-18 01:00:00 18 7 Sur 20 Sur 0 -- -- 68
2019-09-18 00:00:00 18 5 Sur 44 Sudoeste 0.4 -- -- 70
2019-09-17 23:00:00 18.1 27 Sudoeste 61 Sudoeste 0.4 -- -- 72
2019-09-17 22:00:00 21.6 3 Sudeste 10 Sudeste 0 -- -- 49
2019-09-17 21:00:00 22.6 8 Este 10 Nordeste 0 -- -- 47